Arnos, France

5:43 PM CEST on July 26, 2017 (GMT +0200)
pardies | | Change Station

Elev 377 ft 43.36 °N, 0.58 °W | Updated 8 minutes ago

Mostly Cloudy
Mostly Cloudy
81.4 °F
Feels Like 83 °F
N
5.0
Wind Variable Wind from NW
Gusts 9.0 mph

Today
High -- | Low -- °F
--% Chance of Precip.
Yesterday
High -- | Low -- °F
Precip. -- in
Pressure 30.04 in
Visibility 6.2 miles
Clouds Mostly Cloudy 3500 ft
Overcast 16000 ft
Heat Index 83 °F
Dew Point 64 °F
Humidity 56%
Rainfall 0.00 in
Snow Depth Not available.
6:45 AM 9:31 PM
Waxing Crescent, 13% visible
METAR LFBP 261530Z AUTO 34004KT 280V090 9999 BKN035 OVC160 25/16 Q1017 NOSIG
Pressure 30.04 in
Visibility 6.2 miles
Clouds Mostly Cloudy 3500 ft
Overcast 16000 ft
Heat Index 83 °F
Dew Point 64 °F
Humidity 56%
Rainfall 0.00 in
Snow Depth Not available.
6:45 AM 9:31 PM
Waxing Crescent, 13% visible
METAR LFBP 261530Z AUTO 34004KT 280V090 9999 BKN035 OVC160 25/16 Q1017 NOSIG

Get Severe Weather Alerts

Thanks for signing up!

Be on the lookout for a verification email in your inbox.

You'll start receiving the daily forecast at 6 AM.

×

10-Day Weather Forecast

×

Almanac

Astronomy

Jul. 26, 2017 Rise Set
Actual Time
Civil Twilight
Nautical Twilight
Astronomical Twilight
Moon
Length of Visible Light
Length of Day
Tomorrow will be .
, % of the Moon is Illuminated

Today's Extremes

Country Highs Country Lows

Community

WunderPhotos

Category 6

Welcome to Category 6. This is the collective home for Weather Underground's featured writeups by Dr. Jeff Masters (right), Bob Henson (left), Chris Burt, and other regular contributors.

Nearby

Air Quality

  Air Quality AQ Index Pollutant
Not available.

Snow Depth

Station Depth Elevation

Earthquake Activity

City Distance Mag. Time & Date
Minimum magnitude displayed is 2.5.

Coastal Water Temperatures

Place Temperature

Stations

Nearby Weather Stations

Station Location Temp. Windchill Dew Point Humidity Wind Precip. Elev Updated Type